Time;durP1;ratioP1;P1;durP2;ratioP2;P2;SDS_P1;SDS_P2;PMS_P1;PMS_P2;Temp;Humidity;BMP_temperature;BMP_pressure;BME280_temperature;BME280_humidity;BME280_pressure;Samples;Min_cycle;Max_cycle;Signal;HPM_P1;HPM_P2
2021/09/23 00:01:39;;;;;;;28.23;18.83;;;11.20;99.90;;;;;;5056335;28;20207;-81
2021/09/23 00:04:20;;;;;;;28.63;20.03;;;11.20;99.90;;;;;;5058344;28;20560;-81
2021/09/23 00:06:47;;;;;;;29.00;20.53;;;11.30;99.90;;;;;;5057328;28;20272;-81
2021/09/23 00:09:14;;;;;;;26.60;19.37;;;11.30;99.90;;;;;;5054330;28;20244;-82
2021/09/23 00:11:41;;;;;;;25.93;19.00;;;11.30;99.90;;;;;;5057921;28;20206;-81
2021/09/23 00:14:09;;;;;;;28.00;19.87;;;11.10;99.90;;;;;;5048395;28;20203;-81
2021/09/23 00:16:36;;;;;;;31.77;20.90;;;11.10;99.90;;;;;;5055503;28;20231;-81
2021/09/23 00:19:03;;;;;;;29.17;21.63;;;11.20;99.90;;;;;;5057329;28;20207;-81
2021/09/23 00:21:30;;;;;;;30.60;21.10;;;11.00;99.90;;;;;;5057280;28;20235;-82
2021/09/23 00:23:57;;;;;;;32.60;21.83;;;11.10;99.90;;;;;;5057564;28;20237;-82
2021/09/23 00:26:24;;;;;;;32.53;21.23;;;11.20;99.90;;;;;;5059177;28;20282;-81
2021/09/23 00:28:51;;;;;;;30.30;19.73;;;11.20;99.90;;;;;;5058742;28;20207;-81
2021/09/23 00:31:19;;;;;;;30.13;22.13;;;11.10;99.90;;;;;;5058562;28;20226;-82
2021/09/23 00:33:46;;;;;;;29.43;20.73;;;11.10;99.90;;;;;;5058068;28;20648;-82
2021/09/23 00:36:13;;;;;;;30.60;22.03;;;11.00;99.90;;;;;;5058028;28;20345;-82
2021/09/23 00:38:40;;;;;;;31.07;20.87;;;11.10;99.90;;;;;;5059516;28;20195;-82
2021/09/23 00:41:07;;;;;;;29.87;21.13;;;11.10;99.90;;;;;;5060102;28;20235;-82
2021/09/23 00:43:34;;;;;;;26.93;19.63;;;10.90;99.90;;;;;;5059768;28;20231;-82
2021/09/23 00:46:01;;;;;;;29.47;19.37;;;10.80;99.90;;;;;;5058814;28;20278;-81
2021/09/23 00:48:29;;;;;;;31.70;22.37;;;10.90;99.90;;;;;;5059206;28;20237;-81
2021/09/23 00:50:58;;;;;;;29.40;22.13;;;11.10;99.90;;;;;;5059728;28;20734;-81
2021/09/23 00:53:26;;;;;;;27.43;19.73;;;11.00;99.90;;;;;;5059452;28;20292;-82
2021/09/23 00:55:56;;;;;;;32.77;20.93;;;10.90;99.90;;;;;;5057941;28;20285;-82
2021/09/23 00:58:24;;;;;;;30.37;19.77;;;11.00;99.90;;;;;;5058229;28;20286;-82
2021/09/23 01:00:51;;;;;;;29.60;20.30;;;11.00;99.90;;;;;;5057285;28;20231;-82
2021/09/23 01:03:18;;;;;;;29.87;20.80;;;10.90;99.90;;;;;;5058402;28;20723;-82
2021/09/23 01:05:46;;;;;;;30.33;21.43;;;10.80;99.90;;;;;;5060670;28;20225;-81
2021/09/23 01:08:13;;;;;;;29.37;20.50;;;10.70;99.90;;;;;;5061393;28;20246;-82
2021/09/23 01:10:40;;;;;;;28.93;20.63;;;10.80;99.90;;;;;;5059461;28;20223;-82
2021/09/23 01:13:07;;;;;;;26.57;18.83;;;10.70;99.90;;;;;;5061689;28;20195;-82
2021/09/23 01:15:34;;;;;;;30.23;21.23;;;10.70;99.90;;;;;;5059583;28;20230;-82
2021/09/23 01:18:01;;;;;;;29.50;21.03;;;10.60;99.90;;;;;;5060994;28;20288;-82
2021/09/23 01:20:28;;;;;;;28.50;19.77;;;10.50;99.90;;;;;;5060100;28;20622;-82
2021/09/23 01:22:56;;;;;;;29.77;20.80;;;10.50;99.90;;;;;;5060404;28;20241;-81
2021/09/23 01:25:23;;;;;;;31.33;21.17;;;10.60;99.90;;;;;;5059748;28;20622;-81
2021/09/23 01:27:51;;;;;;;36.27;24.33;;;10.70;99.90;;;;;;5060001;28;20229;-81
2021/09/23 01:30:18;;;;;;;35.67;24.03;;;10.70;99.90;;;;;;5059323;28;20694;-81
2021/09/23 01:32:45;;;;;;;37.47;26.50;;;10.90;99.90;;;;;;5060155;28;20217;-81
2021/09/23 01:35:12;;;;;;;37.17;24.80;;;10.90;99.90;;;;;;5060692;28;20234;-81
2021/09/23 01:37:40;;;;;;;33.23;23.73;;;11.00;99.90;;;;;;5059893;28;20234;-81
2021/09/23 01:40:11;;;;;;;32.40;23.13;;;11.10;99.90;;;;;;5057633;28;20191;-81
2021/09/23 01:42:38;;;;;;;38.03;24.23;;;11.20;99.90;;;;;;5058447;28;20631;-81
2021/09/23 01:45:07;;;;;;;39.27;26.13;;;11.00;99.90;;;;;;5059320;28;20310;-81
2021/09/23 01:47:34;;;;;;;35.50;24.40;;;11.10;99.90;;;;;;5058418;28;20219;-81
2021/09/23 01:50:01;;;;;;;39.97;28.40;;;11.00;99.90;;;;;;5059239;28;20233;-81
2021/09/23 01:52:28;;;;;;;36.90;25.87;;;11.20;99.90;;;;;;5057734;28;20191;-83
2021/09/23 01:54:55;;;;;;;37.37;26.10;;;11.10;99.90;;;;;;5058075;28;20644;-81
2021/09/23 01:57:23;;;;;;;36.40;25.23;;;11.10;99.90;;;;;;5055370;28;20219;-81
2021/09/23 01:59:50;;;;;;;35.53;25.20;;;11.00;99.90;;;;;;5058322;28;20306;-82
2021/09/23 02:02:17;;;;;;;33.57;23.77;;;11.10;99.90;;;;;;5058771;28;20206;-81
2021/09/23 02:04:44;;;;;;;37.53;25.97;;;11.10;99.90;;;;;;5059223;28;20266;-81
2021/09/23 02:07:11;;;;;;;34.03;22.40;;;11.00;99.90;;;;;;5057851;28;20222;-82
2021/09/23 02:09:38;;;;;;;33.47;24.07;;;10.90;99.90;;;;;;5051919;28;20730;-82
2021/09/23 02:12:05;;;;;;;35.47;24.47;;;10.90;99.90;;;;;;5050522;28;20223;-82
2021/09/23 02:14:33;;;;;;;35.90;25.53;;;10.80;99.90;;;;;;5056169;28;20196;-81
2021/09/23 02:17:00;;;;;;;41.37;25.30;;;10.70;99.90;;;;;;5058040;28;20313;-82
2021/09/23 02:19:27;;;;;;;35.43;25.40;;;10.90;99.90;;;;;;5060668;28;20217;-82
2021/09/23 02:21:54;;;;;;;38.30;25.93;;;10.80;99.90;;;;;;5057888;28;20230;-82
2021/09/23 02:24:21;;;;;;;39.73;26.80;;;10.80;99.90;;;;;;5057189;28;20269;-82
2021/09/23 02:26:48;;;;;;;38.77;26.50;;;10.80;99.90;;;;;;5054375;28;20242;-82
2021/09/23 02:29:15;;;;;;;41.33;26.53;;;10.70;99.90;;;;;;5057915;28;20230;-82
2021/09/23 02:31:43;;;;;;;39.37;27.43;;;10.70;99.90;;;;;;5054047;28;20282;-82
2021/09/23 02:34:10;;;;;;;37.30;26.47;;;10.80;99.90;;;;;;5055860;28;20567;-82
2021/09/23 02:36:37;;;;;;;38.00;26.13;;;10.90;99.90;;;;;;5057313;28;20660;-82
2021/09/23 02:39:04;;;;;;;37.53;26.37;;;10.80;99.90;;;;;;5059862;28;20227;-82
2021/09/23 02:41:32;;;;;;;37.70;24.83;;;10.80;99.90;;;;;;5059431;28;20267;-82
2021/09/23 02:43:59;;;;;;;38.00;26.07;;;10.80;99.90;;;;;;5059643;28;20207;-82
2021/09/23 02:46:26;;;;;;;40.53;26.63;;;10.70;99.90;;;;;;5059365;28;20303;-82
2021/09/23 02:48:55;;;;;;;40.27;27.07;;;10.70;99.90;;;;;;5060208;28;20221;-82
2021/09/23 02:51:22;;;;;;;40.73;27.53;;;10.70;99.90;;;;;;5059716;28;20203;-82
2021/09/23 02:53:49;;;;;;;41.70;27.20;;;10.80;99.90;;;;;;5059802;28;20562;-82
2021/09/23 02:56:16;;;;;;;38.43;26.47;;;10.80;99.90;;;;;;5059501;28;20210;-82
2021/09/23 02:58:44;;;;;;;41.33;27.83;;;10.80;99.90;;;;;;5059402;28;20211;-82
2021/09/23 03:01:10;;;;;;;37.77;27.03;;;10.80;99.90;;;;;;5059699;28;20222;-82
2021/09/23 03:03:37;;;;;;;40.70;28.83;;;10.80;99.90;;;;;;5059174;28;20206;-82
2021/09/23 03:06:06;;;;;;;39.60;27.33;;;11.00;99.90;;;;;;5059827;28;20286;-82
2021/09/23 03:08:33;;;;;;;41.20;27.43;;;10.90;99.90;;;;;;5058090;28;20204;-81
2021/09/23 03:10:59;;;;;;;43.83;28.77;;;11.00;99.90;;;;;;5058137;28;20287;-82
2021/09/23 03:13:26;;;;;;;41.53;27.23;;;10.80;99.90;;;;;;5060501;28;20741;-82
2021/09/23 03:15:53;;;;;;;42.63;27.50;;;10.60;99.90;;;;;;5059259;28;20280;-82
2021/09/23 03:18:20;;;;;;;41.07;27.60;;;10.80;99.90;;;;;;5059311;28;20317;-82
2021/09/23 03:20:47;;;;;;;41.97;28.90;;;10.80;99.90;;;;;;5058304;28;20294;-82
2021/09/23 03:23:17;;;;;;;37.03;26.23;;;11.00;99.90;;;;;;5054010;28;20209;-82
2021/09/23 03:25:44;;;;;;;40.90;28.67;;;10.70;99.90;;;;;;5058619;28;20221;-82
2021/09/23 03:28:11;;;;;;;39.83;27.63;;;10.60;99.90;;;;;;5058310;28;20254;-82
2021/09/23 03:30:38;;;;;;;44.50;30.23;;;10.50;99.90;;;;;;5059373;28;20231;-82
2021/09/23 03:33:07;;;;;;;40.53;28.60;;;10.60;99.90;;;;;;5058184;28;20215;-82
2021/09/23 03:35:35;;;;;;;44.90;29.60;;;10.50;99.90;;;;;;5059212;28;20651;-82
2021/09/23 03:38:02;;;;;;;42.90;27.83;;;10.40;99.90;;;;;;5059224;28;20268;-82
2021/09/23 03:40:32;;;;;;;41.33;27.97;;;10.40;99.90;;;;;;5058231;28;20282;-82
2021/09/23 03:42:58;;;;;;;39.30;28.37;;;10.50;99.90;;;;;;5058922;28;20227;-82
2021/09/23 03:45:25;;;;;;;45.80;30.10;;;10.60;99.90;;;;;;5057800;28;20322;-82
2021/09/23 03:47:52;;;;;;;44.07;29.30;;;10.70;99.90;;;;;;5052455;28;20314;-82
2021/09/23 03:50:20;;;;;;;46.10;30.67;;;10.60;99.90;;;;;;5050428;28;20686;-82
2021/09/23 03:52:47;;;;;;;43.17;30.00;;;10.80;99.90;;;;;;5058220;28;20207;-82
2021/09/23 03:55:16;;;;;;;43.23;29.03;;;10.90;99.90;;;;;;5056554;28;20651;-82
2021/09/23 03:57:46;;;;;;;45.27;29.83;;;11.00;99.90;;;;;;5057634;28;20219;-81
2021/09/23 04:00:13;;;;;;;46.93;31.13;;;11.10;99.90;;;;;;5056037;28;20652;-81
2021/09/23 04:02:40;;;;;;;43.63;29.87;;;10.90;99.90;;;;;;5046877;28;20230;-81
2021/09/23 04:05:08;;;;;;;45.97;31.30;;;11.10;99.90;;;;;;5054742;28;20290;-81
2021/09/23 04:07:35;;;;;;;42.33;29.60;;;11.20;99.90;;;;;;5052006;28;20305;-82
2021/09/23 04:10:02;;;;;;;46.27;32.53;;;11.10;99.90;;;;;;5056171;28;20250;-81
2021/09/23 04:12:29;;;;;;;46.23;30.77;;;11.10;99.90;;;;;;5059288;28;20234;-81
2021/09/23 04:14:57;;;;;;;47.60;31.67;;;11.30;99.90;;;;;;5052872;28;20199;-81
2021/09/23 04:17:24;;;;;;;47.17;30.87;;;11.20;99.90;;;;;;5054502;28;20227;-82
2021/09/23 04:19:51;;;;;;;45.23;31.93;;;11.20;99.90;;;;;;5056366;28;20209;-81
2021/09/23 04:22:18;;;;;;;44.73;30.40;;;11.10;99.90;;;;;;5056970;28;20284;-81
2021/09/23 04:24:46;;;;;;;49.87;31.87;;;11.20;99.90;;;;;;5048050;28;20211;-81
2021/09/23 04:27:13;;;;;;;43.70;30.50;;;11.30;99.90;;;;;;5055040;28;20272;-81
2021/09/23 04:29:43;;;;;;;50.10;32.10;;;11.20;99.90;;;;;;5055702;28;20286;-81
2021/09/23 04:32:11;;;;;;;46.47;30.60;;;11.30;99.90;;;;;;5056338;28;20202;-81
2021/09/23 04:34:38;;;;;;;45.37;31.47;;;11.40;99.90;;;;;;5056795;28;20695;-81
2021/09/23 04:37:05;;;;;;;47.57;30.87;;;11.50;99.90;;;;;;5056239;28;20226;-81
2021/09/23 04:39:32;;;;;;;46.60;30.40;;;11.40;99.90;;;;;;5059624;28;20286;-82
2021/09/23 04:41:59;;;;;;;47.40;31.83;;;11.40;99.90;;;;;;5060782;28;20242;-81
2021/09/23 04:44:27;;;;;;;46.27;31.60;;;11.40;99.90;;;;;;5060854;28;20234;-81
2021/09/23 04:46:55;;;;;;;46.87;30.03;;;11.30;99.90;;;;;;5060855;28;20253;-82
2021/09/23 04:49:23;;;;;;;46.30;30.63;;;11.10;99.90;;;;;;5058676;28;20234;-82
2021/09/23 04:51:50;;;;;;;42.97;30.67;;;11.20;99.90;;;;;;5060917;28;20227;-82
2021/09/23 04:54:17;;;;;;;43.17;29.23;;;11.30;99.90;;;;;;5060107;28;20234;-82
2021/09/23 04:56:44;;;;;;;46.60;30.37;;;11.20;99.90;;;;;;5059444;28;20242;-81
2021/09/23 04:59:11;;;;;;;45.50;30.17;;;11.10;99.90;;;;;;5048841;28;20291;-81
2021/09/23 05:01:38;;;;;;;45.10;30.57;;;11.20;99.90;;;;;;5060342;28;20203;-82
2021/09/23 05:04:05;;;;;;;46.97;29.80;;;11.20;99.90;;;;;;5060952;28;20195;-81
2021/09/23 05:06:33;;;;;;;45.27;30.23;;;11.20;99.90;;;;;;5059554;28;20310;-81
2021/09/23 05:09:01;;;;;;;46.37;32.63;;;11.20;99.90;;;;;;5060253;28;20203;-81
2021/09/23 05:11:28;;;;;;;47.70;32.87;;;11.20;99.90;;;;;;5059452;28;20652;-81
2021/09/23 05:13:55;;;;;;;47.20;32.27;;;11.10;99.90;;;;;;5059936;28;20361;-81
2021/09/23 05:16:23;;;;;;;45.97;31.27;;;11.10;99.90;;;;;;5059955;28;20314;-82
2021/09/23 05:18:50;;;;;;;50.40;32.40;;;11.10;99.90;;;;;;5060851;28;20238;-82
2021/09/23 05:21:16;;;;;;;43.93;30.00;;;11.20;99.90;;;;;;5060109;28;20297;-81
2021/09/23 05:23:45;;;;;;;44.70;30.30;;;11.10;99.90;;;;;;5060157;28;20239;-81
2021/09/23 05:26:12;;;;;;;45.57;30.27;;;11.00;99.90;;;;;;5060320;28;20229;-81
2021/09/23 05:28:39;;;;;;;47.33;30.10;;;11.00;99.90;;;;;;5061262;28;20238;-82
2021/09/23 05:31:06;;;;;;;45.83;29.73;;;11.00;99.90;;;;;;5058075;28;20230;-82
2021/09/23 05:33:33;;;;;;;48.13;31.17;;;11.00;99.90;;;;;;5059417;28;20277;-82
2021/09/23 05:36:00;;;;;;;42.40;29.43;;;10.90;99.90;;;;;;5058838;28;20246;-82
2021/09/23 05:38:27;;;;;;;44.20;29.67;;;11.10;99.90;;;;;;5056543;28;20223;-82
2021/09/23 05:40:59;;;;;;;47.00;29.67;;;11.00;99.90;;;;;;5058609;28;20286;-82
2021/09/23 05:43:26;;;;;;;43.90;29.90;;;11.30;99.90;;;;;;5061680;28;20207;-82
2021/09/23 05:45:54;;;;;;;47.83;29.20;;;11.20;99.90;;;;;;5061290;28;20273;-82
2021/09/23 05:48:21;;;;;;;46.57;29.37;;;11.30;99.90;;;;;;5063286;28;20230;-82
2021/09/23 05:50:48;;;;;;;43.60;28.43;;;11.30;99.90;;;;;;5060339;28;20270;-82
2021/09/23 05:53:15;;;;;;;43.37;27.70;;;11.30;99.90;;;;;;5061637;28;20238;-82
2021/09/23 05:55:43;;;;;;;42.03;27.77;;;11.30;99.90;;;;;;5060483;28;20243;-82
2021/09/23 05:58:11;;;;;;;42.83;29.07;;;11.40;99.90;;;;;;5052132;28;20227;-82
2021/09/23 06:00:38;;;;;;;43.43;29.43;;;11.40;99.90;;;;;;5056104;28;20466;-82
2021/09/23 06:03:05;;;;;;;42.60;27.73;;;11.50;99.90;;;;;;5058902;28;20267;-82
2021/09/23 06:05:32;;;;;;;41.93;28.87;;;11.50;99.90;;;;;;5056281;28;20246;-82
2021/09/23 06:07:59;;;;;;;44.03;29.00;;;11.50;99.90;;;;;;5059196;28;20243;-81
2021/09/23 06:10:26;;;;;;;55.60;39.60;;;11.60;99.90;;;;;;5057947;28;20285;-81
2021/09/23 06:12:53;;;;;;;44.10;30.07;;;11.60;99.90;;;;;;5059942;28;20839;-81
2021/09/23 06:15:21;;;;;;;41.43;27.33;;;11.70;99.90;;;;;;5051870;28;20211;-81
2021/09/23 06:17:48;;;;;;;41.23;27.53;;;11.70;99.90;;;;;;5054567;28;20237;-81
2021/09/23 06:20:16;;;;;;;43.43;27.30;;;11.90;99.90;;;;;;5060865;28;20402;-81
2021/09/23 06:22:43;;;;;;;41.10;27.00;;;11.90;99.90;;;;;;5060926;28;20470;-82
2021/09/23 06:25:11;;;;;;;41.20;25.67;;;12.00;99.90;;;;;;5055646;28;20237;-81
2021/09/23 06:27:38;;;;;;;38.80;24.47;;;12.10;99.90;;;;;;5058471;28;20683;-82
2021/09/23 06:30:06;;;;;;;40.07;25.17;;;12.20;99.90;;;;;;5059950;28;20643;-82
2021/09/23 06:32:34;;;;;;;36.17;25.40;;;12.30;99.90;;;;;;5061797;28;20206;-81
2021/09/23 06:35:01;;;;;;;34.57;23.23;;;12.30;99.90;;;;;;5057769;28;20643;-82
2021/09/23 06:37:28;;;;;;;36.77;24.90;;;12.50;99.90;;;;;;5057237;28;20227;-81
2021/09/23 06:39:55;;;;;;;35.30;22.93;;;12.60;99.90;;;;;;5057508;28;20298;-80
2021/09/23 06:42:22;;;;;;;35.40;23.77;;;12.60;99.90;;;;;;5057409;28;20294;-81
2021/09/23 06:44:48;;;;;;;37.23;22.87;;;12.70;99.90;;;;;;5056839;28;20294;-82
2021/09/23 06:47:15;;;;;;;35.23;22.90;;;12.70;99.90;;;;;;5054798;28;20661;-81
2021/09/23 06:49:43;;;;;;;34.20;23.07;;;12.70;99.90;;;;;;5056895;28;20290;-82
2021/09/23 06:52:10;;;;;;;32.83;22.33;;;12.80;99.90;;;;;;5055930;28;20203;-81
2021/09/23 06:54:37;;;;;;;34.17;21.77;;;12.90;99.90;;;;;;5046460;28;20246;-81
2021/09/23 06:57:05;;;;;;;31.90;20.50;;;12.90;99.90;;;;;;5052167;28;20269;-81
2021/09/23 06:59:31;;;;;;;33.63;21.77;;;13.00;99.90;;;;;;5055855;28;20872;-81
2021/09/23 07:01:58;;;;;;;31.43;20.50;;;13.20;99.90;;;;;;5054355;28;20283;-81
2021/09/23 07:04:26;;;;;;;31.43;20.80;;;13.30;99.90;;;;;;5056378;28;20290;-81
2021/09/23 07:06:54;;;;;;;26.17;18.60;;;13.30;99.90;;;;;;5055099;28;20234;-81
2021/09/23 07:09:21;;;;;;;29.00;19.30;;;13.40;99.90;;;;;;5055301;28;20237;-81
2021/09/23 07:11:47;;;;;;;30.80;19.67;;;13.50;99.90;;;;;;5054707;28;20668;-81
2021/09/23 07:14:14;;;;;;;28.67;18.67;;;13.50;99.90;;;;;;5055089;28;20203;-82
2021/09/23 07:16:41;;;;;;;28.53;18.70;;;13.60;99.90;;;;;;5054590;28;20276;-81
2021/09/23 07:19:08;;;;;;;28.03;17.77;;;13.70;99.90;;;;;;5053821;28;20337;-81
2021/09/23 07:21:35;;;;;;;27.40;17.90;;;13.70;99.90;;;;;;5054130;28;20302;-81
2021/09/23 07:24:03;;;;;;;27.33;16.67;;;13.80;99.90;;;;;;5056037;28;20295;-81
2021/09/23 07:26:31;;;;;;;27.93;18.13;;;13.90;99.90;;;;;;5053780;28;20318;-81
2021/09/23 07:28:59;;;;;;;24.93;16.47;;;14.10;99.90;;;;;;5049002;28;20204;-81
2021/09/23 07:31:26;;;;;;;30.10;16.73;;;14.20;99.90;;;;;;5048859;28;20207;-81
2021/09/23 07:33:53;;;;;;;25.70;17.37;;;14.30;99.90;;;;;;5049843;28;20298;-82
2021/09/23 07:36:21;;;;;;;24.93;17.20;;;14.30;99.90;;;;;;5048780;28;20309;-81
2021/09/23 07:38:48;;;;;;;25.70;16.13;;;14.50;99.90;;;;;;5051026;28;20331;-81
2021/09/23 07:41:16;;;;;;;24.77;15.77;;;14.50;99.90;;;;;;5048909;28;20214;-82
2021/09/23 07:43:43;;;;;;;24.57;15.60;;;14.70;99.90;;;;;;5050602;28;20242;-81
2021/09/23 07:46:10;;;;;;;24.93;15.53;;;14.70;99.90;;;;;;5050917;28;20270;-82
2021/09/23 07:48:36;;;;;;;25.23;15.43;;;14.90;99.90;;;;;;5051860;28;20361;-82
2021/09/23 07:51:03;;;;;;;23.50;15.43;;;14.80;99.90;;;;;;5051751;28;20645;-81
2021/09/23 07:53:32;;;;;;;23.97;14.47;;;14.90;99.90;;;;;;5051287;28;20293;-82
2021/09/23 07:55:59;;;;;;;22.70;14.43;;;14.90;99.90;;;;;;5050665;28;20675;-82
2021/09/23 07:58:27;;;;;;;22.93;14.60;;;15.00;99.90;;;;;;5053440;28;20258;-82
2021/09/23 08:00:54;;;;;;;24.47;14.93;;;15.00;99.90;;;;;;5052566;28;20661;-82
2021/09/23 08:03:21;;;;;;;24.33;15.03;;;15.00;99.90;;;;;;5051355;28;20222;-81
2021/09/23 08:05:47;;;;;;;23.27;15.33;;;15.10;99.90;;;;;;5052358;28;20286;-82
2021/09/23 08:08:14;;;;;;;26.67;15.77;;;15.10;99.90;;;;;;5052050;28;20291;-83
2021/09/23 08:10:41;;;;;;;25.60;14.23;;;15.30;99.90;;;;;;5050626;28;20226;-83
2021/09/23 08:13:08;;;;;;;23.60;14.60;;;15.10;99.90;;;;;;5051031;28;20223;-82
2021/09/23 08:15:36;;;;;;;25.57;14.70;;;15.10;99.90;;;;;;5050416;28;20249;-82
2021/09/23 08:18:03;;;;;;;26.67;14.23;;;15.20;99.90;;;;;;5051747;28;20314;-82
2021/09/23 08:20:30;;;;;;;22.20;13.93;;;15.20;99.90;;;;;;5051937;28;20294;-82
2021/09/23 08:22:57;;;;;;;21.77;14.60;;;15.40;99.90;;;;;;5052222;28;20294;-81
2021/09/23 08:25:24;;;;;;;21.02;12.68;;;15.50;99.90;;;;;;5051940;28;20253;-81
2021/09/23 08:27:51;;;;;;;22.20;13.77;;;15.60;99.90;;;;;;5049074;28;20321;-82
2021/09/23 08:30:18;;;;;;;23.67;13.73;;;15.80;99.90;;;;;;5051607;28;20294;-81
2021/09/23 08:32:46;;;;;;;20.80;12.38;;;15.90;99.90;;;;;;5051873;28;20207;-82
2021/09/23 08:35:13;;;;;;;20.53;12.80;;;16.00;99.90;;;;;;5052035;28;20242;-81
2021/09/23 08:37:40;;;;;;;19.38;12.52;;;15.90;99.90;;;;;;5051734;28;20249;-82
2021/09/23 08:40:10;;;;;;;19.95;11.48;;;15.80;99.90;;;;;;5051713;28;20290;-82
2021/09/23 08:42:38;;;;;;;20.70;12.02;;;15.80;99.90;;;;;;5053314;28;20203;-82
2021/09/23 08:45:06;;;;;;;19.53;11.23;;;15.80;99.90;;;;;;5051930;28;20211;-82
2021/09/23 08:47:33;;;;;;;20.03;11.60;;;15.90;99.90;;;;;;5050683;28;20786;-82
2021/09/23 08:50:02;;;;;;;16.90;10.25;;;16.00;99.90;;;;;;5051209;28;20203;-81
2021/09/23 08:52:30;;;;;;;18.20;10.50;;;16.10;99.90;;;;;;5052126;28;20226;-82
2021/09/23 08:54:57;;;;;;;15.80;10.10;;;16.30;99.90;;;;;;5051016;28;20609;-81
2021/09/23 08:57:24;;;;;;;18.73;10.43;;;16.50;99.90;;;;;;5052065;28;20307;-82
2021/09/23 08:59:51;;;;;;;16.02;9.95;;;16.70;99.90;;;;;;5051131;28;20211;-82
2021/09/23 09:02:23;;;;;;;19.10;9.90;;;16.80;99.90;;;;;;5043077;28;20286;-81
2021/09/23 09:04:54;;;;;;;16.98;9.35;;;17.00;99.90;;;;;;5042255;28;20268;-81
2021/09/23 09:07:27;;;;;;;13.48;9.18;;;17.20;99.90;;;;;;5043381;28;20283;-82
2021/09/23 09:10:01;;;;;;;14.90;8.85;;;17.40;99.90;;;;;;5052480;28;20207;-82
2021/09/23 09:12:29;;;;;;;13.85;8.02;;;17.70;99.90;;;;;;5052028;28;20203;-82
2021/09/23 09:14:56;;;;;;;12.27;7.53;;;18.00;99.90;;;;;;5050940;28;20297;-82
2021/09/23 09:17:23;;;;;;;11.05;7.53;;;18.30;99.90;;;;;;5051631;28;20310;-82
2021/09/23 09:19:54;;;;;;;11.43;7.18;;;18.40;99.90;;;;;;5052563;28;20317;-82
2021/09/23 09:22:25;;;;;;;11.90;7.45;;;18.90;99.90;;;;;;5048308;28;20253;-82
2021/09/23 09:24:55;;;;;;;12.75;7.22;;;18.90;99.90;;;;;;5052614;28;20203;-81
2021/09/23 09:27:37;;;;;;;10.43;6.30;;;18.90;99.90;;;;;;5049371;28;20770;-82
2021/09/23 09:30:08;;;;;;;12.23;6.38;;;19.20;99.90;;;;;;5054971;28;20211;-82
2021/09/23 09:32:44;;;;;;;10.10;5.65;;;19.40;99.90;;;;;;5055328;28;20303;-81
2021/09/23 09:35:13;;;;;;;11.02;5.63;;;19.60;99.90;;;;;;5052483;28;20297;-81
2021/09/23 09:37:44;;;;;;;8.40;5.07;;;19.70;99.90;;;;;;5055615;28;20361;-82
2021/09/23 09:40:14;;;;;;;10.02;6.40;;;20.10;99.90;;;;;;5054500;28;20233;-82
2021/09/23 09:42:43;;;;;;;12.00;5.95;;;19.70;99.90;;;;;;5055670;28;20203;-82
2021/09/23 09:45:19;;;;;;;11.65;5.97;;;19.40;99.90;;;;;;5048016;28;20213;-82
2021/09/23 09:47:52;;;;;;;11.18;6.47;;;19.50;99.90;;;;;;5057125;28;20229;-82
2021/09/23 09:50:20;;;;;;;10.27;6.20;;;19.50;99.90;;;;;;5055501;28;20239;-81
2021/09/23 09:52:56;;;;;;;10.63;5.90;;;19.30;99.90;;;;;;5056316;28;20214;-82
2021/09/23 09:55:24;;;;;;;9.75;6.43;;;19.60;99.90;;;;;;5051982;28;20293;-82
2021/09/23 09:57:52;;;;;;;9.73;5.95;;;19.60;99.90;;;;;;5055383;28;20242;-82
2021/09/23 10:00:20;;;;;;;9.43;4.97;;;20.10;99.90;;;;;;5056098;28;20246;-83
2021/09/23 10:02:48;;;;;;;9.73;5.70;;;20.20;99.90;;;;;;5054026;28;20238;-82
2021/09/23 10:05:16;;;;;;;7.75;5.50;;;20.40;99.90;;;;;;5054540;28;20306;-80
2021/09/23 10:07:46;;;;;;;10.32;5.65;;;20.20;99.90;;;;;;5056762;28;20659;-81
2021/09/23 10:10:16;;;;;;;12.90;5.97;;;20.10;99.90;;;;;;5056137;28;20199;-82
2021/09/23 10:12:44;;;;;;;9.75;6.18;;;19.90;99.90;;;;;;5055569;28;20234;-82
2021/09/23 10:15:14;;;;;;;11.52;5.65;;;19.90;99.90;;;;;;5056694;28;20234;-82
2021/09/23 10:17:42;;;;;;;8.40;4.90;;;20.10;99.90;;;;;;5057301;28;20219;-82
2021/09/23 10:20:10;;;;;;;9.15;4.80;;;20.40;99.90;;;;;;5056916;28;20258;-81
2021/09/23 10:22:37;;;;;;;10.15;5.68;;;20.50;99.90;;;;;;5056173;28;20215;-81
2021/09/23 10:25:07;;;;;;;9.77;5.75;;;20.30;99.90;;;;;;5055359;28;20238;-82
2021/09/23 10:30:22;;;;;;;8.25;4.93;;;20.70;99.90;;;;;;5056371;28;20233;-82
2021/09/23 10:32:49;;;;;;;9.73;4.82;;;20.80;99.50;;;;;;5058206;28;20230;-82
2021/09/23 10:35:16;;;;;;;9.32;4.82;;;20.80;98.70;;;;;;5054962;28;20225;-81
2021/09/23 10:37:43;;;;;;;9.15;5.03;;;21.10;98.80;;;;;;5056578;28;20257;-81
2021/09/23 10:40:11;;;;;;;9.65;4.82;;;21.00;98.00;;;;;;5055612;28;20223;-81
2021/09/23 10:42:41;;;;;;;10.10;5.57;;;20.70;97.90;;;;;;5037680;28;20234;-80
2021/09/23 10:45:09;;;;;;;8.02;4.75;;;20.80;97.50;;;;;;5046438;28;20293;-81
2021/09/23 10:47:37;;;;;;;5.88;4.40;;;20.70;97.60;;;;;;5055711;28;20255;-81
2021/09/23 10:50:07;;;;;;;10.60;4.45;;;20.70;98.10;;;;;;5057045;28;20513;-81
2021/09/23 10:52:36;;;;;;;11.30;5.00;;;20.80;98.10;;;;;;5055592;28;20195;-82
2021/09/23 10:55:04;;;;;;;7.85;4.68;;;20.80;98.00;;;;;;5055558;28;20624;-82
2021/09/23 10:57:32;;;;;;;7.82;4.78;;;20.70;98.40;;;;;;5054370;28;20225;-82
2021/09/23 11:00:04;;;;;;;6.47;4.63;;;20.90;98.40;;;;;;5054661;28;20227;-81
2021/09/23 11:02:33;;;;;;;7.22;4.43;;;21.10;98.30;;;;;;5054535;28;20231;-81
2021/09/23 11:05:02;;;;;;;9.27;5.07;;;20.90;98.20;;;;;;5054534;28;20235;-81
2021/09/23 11:07:30;;;;;;;7.55;4.53;;;20.90;98.30;;;;;;5055184;28;20277;-82
2021/09/23 11:10:09;;;;;;;7.88;4.97;;;21.00;98.10;;;;;;5053894;28;20199;-81
2021/09/23 11:12:36;;;;;;;7.18;4.43;;;21.30;97.40;;;;;;5053919;28;20238;-81
2021/09/23 11:15:06;;;;;;;7.05;4.20;;;21.30;96.60;;;;;;5053403;28;20286;-81
2021/09/23 11:17:34;;;;;;;9.00;4.80;;;21.50;95.90;;;;;;5053259;28;20229;-82
2021/09/23 11:20:04;;;;;;;5.90;4.30;;;21.60;96.30;;;;;;5053789;28;20313;-81
2021/09/23 11:22:36;;;;;;;4.90;3.97;;;21.70;96.30;;;;;;5054973;28;20267;-80
2021/09/23 11:25:06;;;;;;;6.40;4.88;;;21.80;96.80;;;;;;5056289;28;20207;-82
2021/09/23 11:27:34;;;;;;;6.80;4.38;;;21.80;95.30;;;;;;5056142;28;20297;-82
2021/09/23 11:30:01;;;;;;;6.07;3.60;;;21.70;95.90;;;;;;5055171;28;20273;-81
2021/09/23 11:32:29;;;;;;;9.15;4.05;;;22.20;96.00;;;;;;5055018;28;20234;-81
2021/09/23 11:35:00;;;;;;;6.35;4.38;;;21.90;95.30;;;;;;5055705;28;20210;-80
2021/09/23 11:37:32;;;;;;;6.55;3.85;;;21.60;95.60;;;;;;5055741;28;20254;-79
2021/09/23 11:40:02;;;;;;;6.80;4.68;;;22.10;95.60;;;;;;5042559;28;20314;-81
2021/09/23 11:42:32;;;;;;;7.10;4.10;;;22.00;94.60;;;;;;5054450;28;20201;-80
2021/09/23 11:45:08;;;;;;;4.90;3.88;;;21.90;93.90;;;;;;5055637;28;20559;-80
2021/09/23 11:47:46;;;;;;;7.30;4.07;;;22.20;93.60;;;;;;5053978;28;20286;-82
2021/09/23 11:50:26;;;;;;;11.05;4.50;;;22.20;94.10;;;;;;5055022;28;20207;-83
2021/09/23 11:52:55;;;;;;;6.20;4.40;;;22.10;93.60;;;;;;5055322;28;20552;-81
2021/09/23 11:55:22;;;;;;;7.93;4.72;;;22.30;93.90;;;;;;5053977;28;20289;-80
2021/09/23 11:57:49;;;;;;;5.95;4.30;;;22.00;93.70;;;;;;5055444;28;20229;-80
2021/09/23 12:00:16;;;;;;;7.22;4.70;;;22.20;93.90;;;;;;5047762;28;20211;-82
2021/09/23 12:02:55;;;;;;;7.57;5.13;;;22.30;94.10;;;;;;5053177;28;20230;-81
2021/09/23 12:05:27;;;;;;;6.45;5.28;;;22.20;93.80;;;;;;5055745;28;20630;-81
2021/09/23 12:07:54;;;;;;;10.95;5.10;;;22.20;94.60;;;;;;5057181;28;20635;-81
2021/09/23 12:10:22;;;;;;;9.30;5.45;;;22.00;94.60;;;;;;5052362;28;20193;-81
2021/09/23 12:12:56;;;;;;;12.00;4.97;;;21.70;94.70;;;;;;5053648;28;20222;-81
2021/09/23 12:15:23;;;;;;;11.00;5.55;;;21.70;95.00;;;;;;5050407;28;20214;-82
2021/09/23 12:17:56;;;;;;;11.07;5.05;;;22.20;95.30;;;;;;5055350;28;20223;-82
2021/09/23 12:20:37;;;;;;;8.88;4.75;;;22.20;95.20;;;;;;5049606;28;20211;-82
2021/09/23 12:23:23;;;;;;;9.40;4.90;;;22.30;95.30;;;;;;5050647;28;20624;-80
2021/09/23 12:26:17;;;;;;;9.00;5.13;;;22.40;95.50;;;;;;5052252;28;20214;-81
2021/09/23 12:28:47;;;;;;;10.77;5.18;;;22.30;95.50;;;;;;5050604;28;20564;-82
2021/09/23 12:31:15;;;;;;;11.65;6.05;;;22.20;95.00;;;;;;5055380;28;20237;-82
2021/09/23 12:33:55;;;;;;;7.88;5.68;;;22.00;96.00;;;;;;5042954;28;20205;-81
2021/09/23 12:36:28;;;;;;;9.43;5.20;;;22.00;95.70;;;;;;5051935;28;20222;-81
2021/09/23 12:39:17;;;;;;;6.03;4.93;;;22.20;96.00;;;;;;5054383;28;20226;-81